Hinton, Canada
Current Conditions -  °F | °C
As of 1:00 AM on Sunday 26 Oct 2014 (Local Time) from CYET Reporting Station
Scattered Clouds Scattered Clouds  
Wind Chill: 28°   Ceiling: Unl
Heat Index: 34°   Visibility: 9mi
Dew Point: 27°   Wind: 7mph
Humidity: 75%   Direction: 40°NE
Pressure: 29.45"   Gusts: NA
Location:  53.4°N, 117.58°W
Report Text: CYET 260700Z AUTO 04006KT 9SM FEW110 SCT210 01/M03 A2945 RMK SLP002
Loading
Personal Weather Stations






























Interactive Weather Map
Tropical Storm Tracking
New forecast layout! Learn more

10-Day Weather Forecast

Advertisements
Track Severe Weather on mobile